sensor_id;sensor_type;location;lat;lon;timestamp;pressure;altitude;pressure_sealevel;temperature;humidity
48156;BME280;35568;48.104;11.782;2024-02-04T00:00:55;96313.08;;;6.19;53.33
48156;BME280;35568;48.104;11.782;2024-02-04T00:03:22;96323.85;;;6.21;53.40
48156;BME280;35568;48.104;11.782;2024-02-04T00:05:49;96332.77;;;6.07;53.18
48156;BME280;35568;48.104;11.782;2024-02-04T00:08:16;96334.99;;;6.26;53.43
48156;BME280;35568;48.104;11.782;2024-02-04T00:10:43;96333.50;;;6.18;53.38
48156;BME280;35568;48.104;11.782;2024-02-04T00:13:10;96338.11;;;6.66;53.40
48156;BME280;35568;48.104;11.782;2024-02-04T00:15:36;96341.42;;;6.13;53.64
48156;BME280;35568;48.104;11.782;2024-02-04T00:18:04;96339.05;;;6.47;53.73
48156;BME280;35568;48.104;11.782;2024-02-04T00:20:31;96338.41;;;5.91;53.83
48156;BME280;35568;48.104;11.782;2024-02-04T00:22:58;96340.49;;;6.18;53.83
48156;BME280;35568;48.104;11.782;2024-02-04T00:25:25;96346.93;;;6.48;53.88
48156;BME280;35568;48.104;11.782;2024-02-04T00:27:51;96334.33;;;6.00;53.78
48156;BME280;35568;48.104;11.782;2024-02-04T00:30:18;96333.40;;;6.18;53.83
48156;BME280;35568;48.104;11.782;2024-02-04T00:32:45;96333.57;;;6.18;53.87
48156;BME280;35568;48.104;11.782;2024-02-04T00:35:13;96333.01;;;6.03;53.79
48156;BME280;35568;48.104;11.782;2024-02-04T00:37:39;96333.34;;;6.30;54.05
48156;BME280;35568;48.104;11.782;2024-02-04T00:40:07;96329.98;;;5.85;54.11
48156;BME280;35568;48.104;11.782;2024-02-04T00:42:35;96319.59;;;5.94;53.94
48156;BME280;35568;48.104;11.782;2024-02-04T00:45:02;96315.52;;;5.94;53.92
48156;BME280;35568;48.104;11.782;2024-02-04T00:47:30;96315.48;;;5.98;53.82
48156;BME280;35568;48.104;11.782;2024-02-04T00:49:56;96320.60;;;6.19;53.87
48156;BME280;35568;48.104;11.782;2024-02-04T00:52:23;96315.08;;;6.16;54.41
48156;BME280;35568;48.104;11.782;2024-02-04T00:54:50;96308.25;;;6.09;54.46
48156;BME280;35568;48.104;11.782;2024-02-04T00:57:18;96307.25;;;5.91;54.37
48156;BME280;35568;48.104;11.782;2024-02-04T00:59:45;96314.24;;;5.83;54.16
48156;BME280;35568;48.104;11.782;2024-02-04T01:02:12;96312.34;;;5.89;54.03
48156;BME280;35568;48.104;11.782;2024-02-04T01:04:38;96316.33;;;6.10;53.77
48156;BME280;35568;48.104;11.782;2024-02-04T01:07:05;96316.65;;;6.11;53.70
48156;BME280;35568;48.104;11.782;2024-02-04T01:09:32;96319.90;;;6.32;53.27
48156;BME280;35568;48.104;11.782;2024-02-04T01:11:59;96312.95;;;6.28;53.21
48156;BME280;35568;48.104;11.782;2024-02-04T01:14:26;96306.81;;;6.22;53.25
48156;BME280;35568;48.104;11.782;2024-02-04T01:16:53;96299.57;;;5.77;53.42
48156;BME280;35568;48.104;11.782;2024-02-04T01:19:20;96298.14;;;5.93;53.62
48156;BME280;35568;48.104;11.782;2024-02-04T01:21:47;96293.96;;;5.76;53.73
48156;BME280;35568;48.104;11.782;2024-02-04T01:24:14;96291.62;;;5.80;54.65
48156;BME280;35568;48.104;11.782;2024-02-04T01:26:41;96292.85;;;5.44;55.37
48156;BME280;35568;48.104;11.782;2024-02-04T01:29:08;96292.87;;;5.87;54.66
48156;BME280;35568;48.104;11.782;2024-02-04T01:31:35;96288.26;;;6.02;54.26
48156;BME280;35568;48.104;11.782;2024-02-04T01:34:01;96288.70;;;5.63;54.50
48156;BME280;35568;48.104;11.782;2024-02-04T01:36:28;96282.24;;;5.72;54.17
48156;BME280;35568;48.104;11.782;2024-02-04T01:38:55;96276.41;;;6.06;53.98
48156;BME280;35568;48.104;11.782;2024-02-04T01:41:23;96283.88;;;5.48;55.05
48156;BME280;35568;48.104;11.782;2024-02-04T01:43:50;96283.70;;;5.19;55.07
48156;BME280;35568;48.104;11.782;2024-02-04T01:46:17;96287.83;;;5.54;54.49
48156;BME280;35568;48.104;11.782;2024-02-04T01:48:43;96289.90;;;5.60;54.28
48156;BME280;35568;48.104;11.782;2024-02-04T01:51:11;96297.19;;;6.03;53.95
48156;BME280;35568;48.104;11.782;2024-02-04T01:53:39;96299.52;;;5.83;54.22
48156;BME280;35568;48.104;11.782;2024-02-04T01:56:08;96310.93;;;5.67;54.15
48156;BME280;35568;48.104;11.782;2024-02-04T01:58:35;96311.59;;;5.69;54.41
48156;BME280;35568;48.104;11.782;2024-02-04T02:01:03;96313.22;;;5.38;54.51
48156;BME280;35568;48.104;11.782;2024-02-04T02:03:31;96312.50;;;5.69;54.56
48156;BME280;35568;48.104;11.782;2024-02-04T02:05:59;96308.53;;;5.71;54.53
48156;BME280;35568;48.104;11.782;2024-02-04T02:08:27;96300.31;;;5.69;54.68
48156;BME280;35568;48.104;11.782;2024-02-04T02:11:01;96309.45;;;5.38;54.71
48156;BME280;35568;48.104;11.782;2024-02-04T02:13:31;96315.56;;;5.57;54.41
48156;BME280;35568;48.104;11.782;2024-02-04T02:16:07;96309.45;;;5.99;54.25
48156;BME280;35568;48.104;11.782;2024-02-04T02:18:41;96305.11;;;6.01;53.97
48156;BME280;35568;48.104;11.782;2024-02-04T02:21:22;96291.55;;;5.77;54.18
48156;BME280;35568;48.104;11.782;2024-02-04T02:24:03;96278.29;;;5.44;54.33
48156;BME280;35568;48.104;11.782;2024-02-04T02:26:31;96275.42;;;5.23;54.80
48156;BME280;35568;48.104;11.782;2024-02-04T02:28:58;96274.15;;;5.25;54.70
48156;BME280;35568;48.104;11.782;2024-02-04T02:31:25;96273.35;;;6.03;53.95
48156;BME280;35568;48.104;11.782;2024-02-04T02:33:52;96271.44;;;5.93;53.71
48156;BME280;35568;48.104;11.782;2024-02-04T02:36:21;96273.73;;;5.77;53.41
48156;BME280;35568;48.104;11.782;2024-02-04T02:38:58;96276.05;;;6.20;53.43
48156;BME280;35568;48.104;11.782;2024-02-04T02:41:28;96274.71;;;5.50;53.61
48156;BME280;35568;48.104;11.782;2024-02-04T02:43:57;96272.58;;;5.95;53.80
48156;BME280;35568;48.104;11.782;2024-02-04T02:46:24;96272.09;;;5.47;53.73
48156;BME280;35568;48.104;11.782;2024-02-04T02:48:52;96267.60;;;5.79;53.43
48156;BME280;35568;48.104;11.782;2024-02-04T02:51:20;96265.59;;;5.54;53.53
48156;BME280;35568;48.104;11.782;2024-02-04T02:53:46;96262.09;;;6.08;53.42
48156;BME280;35568;48.104;11.782;2024-02-04T02:56:13;96265.71;;;5.71;53.25
48156;BME280;35568;48.104;11.782;2024-02-04T02:58:40;96271.03;;;5.70;53.05
48156;BME280;35568;48.104;11.782;2024-02-04T03:01:07;96268.32;;;6.00;53.29
48156;BME280;35568;48.104;11.782;2024-02-04T03:03:34;96268.13;;;5.32;53.62
48156;BME280;35568;48.104;11.782;2024-02-04T03:06:01;96273.48;;;5.84;53.68
48156;BME280;35568;48.104;11.782;2024-02-04T03:08:28;96273.06;;;5.87;53.78
48156;BME280;35568;48.104;11.782;2024-02-04T03:10:55;96276.28;;;5.45;53.56
48156;BME280;35568;48.104;11.782;2024-02-04T03:13:22;96275.27;;;5.74;53.53
48156;BME280;35568;48.104;11.782;2024-02-04T03:15:48;96281.33;;;5.85;53.59
48156;BME280;35568;48.104;11.782;2024-02-04T03:18:15;96286.53;;;5.81;53.68
48156;BME280;35568;48.104;11.782;2024-02-04T03:20:42;96292.05;;;5.47;53.93
48156;BME280;35568;48.104;11.782;2024-02-04T03:23:09;96288.73;;;5.68;53.99
48156;BME280;35568;48.104;11.782;2024-02-04T03:25:36;96282.13;;;5.59;53.80
48156;BME280;35568;48.104;11.782;2024-02-04T03:28:04;96280.77;;;5.52;53.90
48156;BME280;35568;48.104;11.782;2024-02-04T03:30:31;96277.55;;;5.67;53.56
48156;BME280;35568;48.104;11.782;2024-02-04T03:32:58;96282.98;;;5.87;53.66
48156;BME280;35568;48.104;11.782;2024-02-04T03:35:25;96285.70;;;5.78;53.81
48156;BME280;35568;48.104;11.782;2024-02-04T03:37:52;96286.67;;;5.97;53.61
48156;BME280;35568;48.104;11.782;2024-02-04T03:40:19;96288.34;;;6.05;53.35
48156;BME280;35568;48.104;11.782;2024-02-04T03:42:46;96290.86;;;5.85;53.35
48156;BME280;35568;48.104;11.782;2024-02-04T03:45:13;96287.95;;;5.97;53.06
48156;BME280;35568;48.104;11.782;2024-02-04T03:47:40;96292.98;;;5.95;53.16
48156;BME280;35568;48.104;11.782;2024-02-04T03:50:07;96291.77;;;6.05;53.04
48156;BME280;35568;48.104;11.782;2024-02-04T03:52:35;96292.73;;;5.94;53.18
48156;BME280;35568;48.104;11.782;2024-02-04T03:55:01;96303.02;;;5.99;53.18
48156;BME280;35568;48.104;11.782;2024-02-04T03:57:28;96298.34;;;6.32;53.01
48156;BME280;35568;48.104;11.782;2024-02-04T03:59:55;96297.35;;;6.09;52.83
48156;BME280;35568;48.104;11.782;2024-02-04T04:03:02;96294.26;;;5.51;51.40
48156;BME280;35568;48.104;11.782;2024-02-04T04:05:30;96302.85;;;6.63;50.63
48156;BME280;35568;48.104;11.782;2024-02-04T04:07:57;96309.53;;;6.41;51.14
48156;BME280;35568;48.104;11.782;2024-02-04T04:10:23;96301.58;;;6.57;51.36
48156;BME280;35568;48.104;11.782;2024-02-04T04:12:51;96293.86;;;6.35;51.86
48156;BME280;35568;48.104;11.782;2024-02-04T04:15:18;96283.91;;;5.87;52.70
48156;BME280;35568;48.104;11.782;2024-02-04T04:17:45;96288.58;;;6.07;52.50
48156;BME280;35568;48.104;11.782;2024-02-04T04:20:11;96285.93;;;5.85;52.81
48156;BME280;35568;48.104;11.782;2024-02-04T04:22:39;96285.05;;;6.11;52.72
48156;BME280;35568;48.104;11.782;2024-02-04T04:25:06;96280.35;;;5.86;52.92
48156;BME280;35568;48.104;11.782;2024-02-04T04:27:34;96271.61;;;5.89;53.07
48156;BME280;35568;48.104;11.782;2024-02-04T04:30:01;96283.06;;;5.91;52.99
48156;BME280;35568;48.104;11.782;2024-02-04T04:32:27;96290.43;;;5.98;53.08
48156;BME280;35568;48.104;11.782;2024-02-04T04:34:54;96298.01;;;5.68;53.62
48156;BME280;35568;48.104;11.782;2024-02-04T04:37:21;96291.58;;;5.66;53.76
48156;BME280;35568;48.104;11.782;2024-02-04T04:39:48;96281.57;;;5.81;53.63
48156;BME280;35568;48.104;11.782;2024-02-04T04:42:16;96279.81;;;5.71;53.89
48156;BME280;35568;48.104;11.782;2024-02-04T04:44:43;96290.18;;;5.57;54.19
48156;BME280;35568;48.104;11.782;2024-02-04T04:47:10;96290.12;;;5.42;55.07
48156;BME280;35568;48.104;11.782;2024-02-04T04:49:37;96291.10;;;5.27;55.18
48156;BME280;35568;48.104;11.782;2024-02-04T04:52:04;96305.49;;;5.63;54.77
48156;BME280;35568;48.104;11.782;2024-02-04T04:54:32;96310.13;;;5.90;54.13
48156;BME280;35568;48.104;11.782;2024-02-04T04:56:58;96306.28;;;5.98;54.24
48156;BME280;35568;48.104;11.782;2024-02-04T04:59:25;96301.32;;;6.09;54.00
48156;BME280;35568;48.104;11.782;2024-02-04T05:01:52;96291.67;;;6.30;53.85
48156;BME280;35568;48.104;11.782;2024-02-04T05:04:19;96292.34;;;6.34;53.63
48156;BME280;35568;48.104;11.782;2024-02-04T05:06:46;96293.48;;;6.25;53.60
48156;BME280;35568;48.104;11.782;2024-02-04T05:09:13;96288.80;;;6.05;53.69
48156;BME280;35568;48.104;11.782;2024-02-04T05:11:40;96286.70;;;6.20;53.76
48156;BME280;35568;48.104;11.782;2024-02-04T05:14:06;96291.76;;;6.27;54.06
48156;BME280;35568;48.104;11.782;2024-02-04T05:16:34;96287.47;;;6.23;53.80
48156;BME280;35568;48.104;11.782;2024-02-04T05:19:01;96286.36;;;5.75;54.04
48156;BME280;35568;48.104;11.782;2024-02-04T05:21:28;96283.06;;;6.00;54.27
48156;BME280;35568;48.104;11.782;2024-02-04T05:23:54;96277.60;;;5.70;54.77
48156;BME280;35568;48.104;11.782;2024-02-04T05:26:21;96273.03;;;5.98;54.27
48156;BME280;35568;48.104;11.782;2024-02-04T05:28:48;96265.84;;;5.56;54.16
48156;BME280;35568;48.104;11.782;2024-02-04T05:31:15;96257.62;;;5.54;54.15
48156;BME280;35568;48.104;11.782;2024-02-04T05:33:42;96257.66;;;5.87;53.97
48156;BME280;35568;48.104;11.782;2024-02-04T05:36:09;96255.83;;;5.98;54.08
48156;BME280;35568;48.104;11.782;2024-02-04T05:38:36;96257.65;;;6.00;53.90
48156;BME280;35568;48.104;11.782;2024-02-04T05:41:03;96265.63;;;6.11;53.73
48156;BME280;35568;48.104;11.782;2024-02-04T05:43:31;96273.79;;;5.67;54.03
48156;BME280;35568;48.104;11.782;2024-02-04T05:45:58;96281.44;;;6.21;53.80
48156;BME280;35568;48.104;11.782;2024-02-04T05:48:25;96280.69;;;6.05;54.12
48156;BME280;35568;48.104;11.782;2024-02-04T05:50:51;96273.71;;;6.41;54.17
48156;BME280;35568;48.104;11.782;2024-02-04T05:53:18;96257.55;;;6.39;54.44
48156;BME280;35568;48.104;11.782;2024-02-04T05:55:46;96250.27;;;5.62;55.19
48156;BME280;35568;48.104;11.782;2024-02-04T05:58:13;96259.70;;;5.87;56.18
48156;BME280;35568;48.104;11.782;2024-02-04T06:00:40;96266.84;;;5.96;56.29
48156;BME280;35568;48.104;11.782;2024-02-04T06:03:07;96265.85;;;5.72;56.28
48156;BME280;35568;48.104;11.782;2024-02-04T06:05:34;96270.68;;;5.95;56.44
48156;BME280;35568;48.104;11.782;2024-02-04T06:08:01;96276.62;;;6.04;56.50
48156;BME280;35568;48.104;11.782;2024-02-04T06:10:28;96279.45;;;6.20;56.73
48156;BME280;35568;48.104;11.782;2024-02-04T06:12:55;96279.04;;;6.13;56.69
48156;BME280;35568;48.104;11.782;2024-02-04T06:15:22;96281.43;;;6.17;56.87
48156;BME280;35568;48.104;11.782;2024-02-04T06:17:50;96278.81;;;6.22;56.62
48156;BME280;35568;48.104;11.782;2024-02-04T06:20:17;96271.33;;;5.83;56.54
48156;BME280;35568;48.104;11.782;2024-02-04T06:22:45;96261.38;;;6.65;55.94
48156;BME280;35568;48.104;11.782;2024-02-04T06:25:11;96266.76;;;6.01;56.07
48156;BME280;35568;48.104;11.782;2024-02-04T06:27:38;96272.05;;;6.57;56.00
48156;BME280;35568;48.104;11.782;2024-02-04T06:30:06;96276.33;;;6.69;56.03
48156;BME280;35568;48.104;11.782;2024-02-04T06:32:33;96275.35;;;6.77;55.60
48156;BME280;35568;48.104;11.782;2024-02-04T06:35:00;96278.47;;;6.16;55.37
48156;BME280;35568;48.104;11.782;2024-02-04T06:37:27;96284.26;;;6.47;55.77
48156;BME280;35568;48.104;11.782;2024-02-04T06:39:53;96279.63;;;6.37;55.60
48156;BME280;35568;48.104;11.782;2024-02-04T06:42:20;96282.70;;;6.42;55.40
48156;BME280;35568;48.104;11.782;2024-02-04T06:44:47;96280.10;;;6.73;55.27
48156;BME280;35568;48.104;11.782;2024-02-04T06:47:14;96282.21;;;6.52;55.30
48156;BME280;35568;48.104;11.782;2024-02-04T06:49:44;96289.93;;;6.47;55.34
48156;BME280;35568;48.104;11.782;2024-02-04T06:52:11;96294.48;;;6.54;55.15
48156;BME280;35568;48.104;11.782;2024-02-04T06:54:38;96295.49;;;6.44;55.12
48156;BME280;35568;48.104;11.782;2024-02-04T06:57:05;96301.64;;;6.72;55.04
48156;BME280;35568;48.104;11.782;2024-02-04T06:59:33;96299.53;;;6.84;54.70
48156;BME280;35568;48.104;11.782;2024-02-04T07:02:00;96298.79;;;6.77;54.46
48156;BME280;35568;48.104;11.782;2024-02-04T07:04:28;96300.56;;;6.59;54.54
48156;BME280;35568;48.104;11.782;2024-02-04T07:07:00;96307.46;;;6.95;54.20
48156;BME280;35568;48.104;11.782;2024-02-04T07:09:28;96313.45;;;6.88;54.26
48156;BME280;35568;48.104;11.782;2024-02-04T07:11:55;96315.30;;;7.12;53.74
48156;BME280;35568;48.104;11.782;2024-02-04T07:14:21;96315.04;;;7.14;53.69
48156;BME280;35568;48.104;11.782;2024-02-04T07:16:48;96310.74;;;6.93;53.92
48156;BME280;35568;48.104;11.782;2024-02-04T07:19:15;96302.49;;;6.98;54.01
48156;BME280;35568;48.104;11.782;2024-02-04T07:21:42;96302.05;;;6.98;54.00
48156;BME280;35568;48.104;11.782;2024-02-04T07:24:09;96294.26;;;6.70;53.64
48156;BME280;35568;48.104;11.782;2024-02-04T07:26:36;96288.63;;;6.66;53.63
48156;BME280;35568;48.104;11.782;2024-02-04T07:29:03;96288.20;;;6.90;53.66
48156;BME280;35568;48.104;11.782;2024-02-04T07:31:29;96287.13;;;6.65;53.62
48156;BME280;35568;48.104;11.782;2024-02-04T07:33:56;96286.95;;;6.47;53.80
48156;BME280;35568;48.104;11.782;2024-02-04T07:36:23;96291.55;;;6.62;53.65
48156;BME280;35568;48.104;11.782;2024-02-04T07:38:50;96295.45;;;6.60;53.99
48156;BME280;35568;48.104;11.782;2024-02-04T07:41:17;96292.43;;;6.85;53.72
48156;BME280;35568;48.104;11.782;2024-02-04T07:43:44;96286.96;;;6.60;53.47
48156;BME280;35568;48.104;11.782;2024-02-04T07:46:11;96285.39;;;6.84;53.28
48156;BME280;35568;48.104;11.782;2024-02-04T07:48:38;96283.34;;;6.67;53.13
48156;BME280;35568;48.104;11.782;2024-02-04T07:51:05;96288.34;;;6.90;53.10
48156;BME280;35568;48.104;11.782;2024-02-04T07:53:33;96283.54;;;7.00;53.24
48156;BME280;35568;48.104;11.782;2024-02-04T07:56:00;96278.83;;;7.11;52.79
48156;BME280;35568;48.104;11.782;2024-02-04T07:58:27;96277.54;;;7.25;52.32
48156;BME280;35568;48.104;11.782;2024-02-04T08:00:54;96278.94;;;7.15;52.88
48156;BME280;35568;48.104;11.782;2024-02-04T08:03:21;96283.30;;;7.21;52.50
48156;BME280;35568;48.104;11.782;2024-02-04T08:05:48;96286.03;;;7.39;51.93
48156;BME280;35568;48.104;11.782;2024-02-04T08:08:16;96284.92;;;7.37;52.04
48156;BME280;35568;48.104;11.782;2024-02-04T08:10:43;96289.12;;;7.13;51.30
48156;BME280;35568;48.104;11.782;2024-02-04T08:13:10;96294.10;;;7.46;51.49
48156;BME280;35568;48.104;11.782;2024-02-04T08:15:37;96290.72;;;7.75;50.91
48156;BME280;35568;48.104;11.782;2024-02-04T08:18:05;96292.28;;;7.57;50.69
48156;BME280;35568;48.104;11.782;2024-02-04T08:20:31;96297.43;;;7.68;50.61
48156;BME280;35568;48.104;11.782;2024-02-04T08:22:58;96294.37;;;7.86;50.92
48156;BME280;35568;48.104;11.782;2024-02-04T08:25:26;96296.49;;;7.83;50.15
48156;BME280;35568;48.104;11.782;2024-02-04T08:27:53;96290.00;;;7.78;50.11
48156;BME280;35568;48.104;11.782;2024-02-04T08:30:20;96291.75;;;7.99;50.36
48156;BME280;35568;48.104;11.782;2024-02-04T08:32:48;96288.21;;;7.61;49.81
48156;BME280;35568;48.104;11.782;2024-02-04T08:35:16;96288.19;;;7.87;50.13
48156;BME280;35568;48.104;11.782;2024-02-04T08:37:46;96291.30;;;7.51;49.71
48156;BME280;35568;48.104;11.782;2024-02-04T08:40:13;96289.51;;;7.88;49.52
48156;BME280;35568;48.104;11.782;2024-02-04T08:42:41;96286.58;;;8.11;49.32
48156;BME280;35568;48.104;11.782;2024-02-04T08:45:09;96282.29;;;7.95;49.42
48156;BME280;35568;48.104;11.782;2024-02-04T08:47:36;96284.33;;;8.08;48.70
48156;BME280;35568;48.104;11.782;2024-02-04T08:50:05;96283.00;;;8.12;48.62
48156;BME280;35568;48.104;11.782;2024-02-04T08:52:32;96280.16;;;8.05;49.05
48156;BME280;35568;48.104;11.782;2024-02-04T08:54:59;96278.94;;;8.19;48.54
48156;BME280;35568;48.104;11.782;2024-02-04T08:57:25;96283.32;;;8.53;48.58
48156;BME280;35568;48.104;11.782;2024-02-04T08:59:52;96282.39;;;8.54;48.03
48156;BME280;35568;48.104;11.782;2024-02-04T09:02:19;96275.73;;;8.42;47.84
48156;BME280;35568;48.104;11.782;2024-02-04T09:04:46;96272.25;;;8.75;47.46
48156;BME280;35568;48.104;11.782;2024-02-04T09:07:13;96262.91;;;8.42;47.71
48156;BME280;35568;48.104;11.782;2024-02-04T09:09:40;96258.08;;;8.38;47.65
48156;BME280;35568;48.104;11.782;2024-02-04T09:12:09;96255.73;;;8.34;47.49
48156;BME280;35568;48.104;11.782;2024-02-04T09:14:36;96248.43;;;8.03;47.64
48156;BME280;35568;48.104;11.782;2024-02-04T09:17:03;96250.28;;;8.38;47.36
48156;BME280;35568;48.104;11.782;2024-02-04T09:19:31;96250.32;;;8.25;47.18
48156;BME280;35568;48.104;11.782;2024-02-04T09:21:58;96247.74;;;8.56;47.67
48156;BME280;35568;48.104;11.782;2024-02-04T09:24:24;96242.37;;;8.81;46.98
48156;BME280;35568;48.104;11.782;2024-02-04T09:26:51;96235.07;;;8.65;46.96
48156;BME280;35568;48.104;11.782;2024-02-04T09:29:19;96235.48;;;8.62;46.87
48156;BME280;35568;48.104;11.782;2024-02-04T09:31:47;96227.92;;;9.07;46.51
48156;BME280;35568;48.104;11.782;2024-02-04T09:34:13;96228.97;;;8.88;46.17
48156;BME280;35568;48.104;11.782;2024-02-04T09:36:40;96226.80;;;9.03;46.41
48156;BME280;35568;48.104;11.782;2024-02-04T09:39:08;96227.57;;;9.31;46.25
48156;BME280;35568;48.104;11.782;2024-02-04T09:41:34;96228.16;;;9.26;46.06
48156;BME280;35568;48.104;11.782;2024-02-04T09:44:03;96230.68;;;9.41;45.42
48156;BME280;35568;48.104;11.782;2024-02-04T09:46:31;96229.67;;;9.39;45.59
48156;BME280;35568;48.104;11.782;2024-02-04T09:48:58;96234.33;;;9.24;45.48
48156;BME280;35568;48.104;11.782;2024-02-04T09:51:25;96239.67;;;9.49;45.44
48156;BME280;35568;48.104;11.782;2024-02-04T09:53:54;96244.19;;;9.46;45.14
48156;BME280;35568;48.104;11.782;2024-02-04T09:56:25;96245.71;;;9.51;44.84
48156;BME280;35568;48.104;11.782;2024-02-04T09:58:52;96255.95;;;9.37;45.31
48156;BME280;35568;48.104;11.782;2024-02-04T10:01:20;96258.13;;;9.07;44.85
48156;BME280;35568;48.104;11.782;2024-02-04T10:03:47;96257.72;;;9.15;45.41
48156;BME280;35568;48.104;11.782;2024-02-04T10:06:15;96262.64;;;9.45;45.49
48156;BME280;35568;48.104;11.782;2024-02-04T10:08:42;96268.73;;;8.84;45.59
48156;BME280;35568;48.104;11.782;2024-02-04T10:11:10;96273.31;;;9.07;45.86
48156;BME280;35568;48.104;11.782;2024-02-04T10:13:44;96279.35;;;9.29;45.17
48156;BME280;35568;48.104;11.782;2024-02-04T10:16:11;96274.28;;;9.13;45.49
48156;BME280;35568;48.104;11.782;2024-02-04T10:18:41;96275.09;;;9.28;45.65
48156;BME280;35568;48.104;11.782;2024-02-04T10:21:15;96276.24;;;9.16;45.59
48156;BME280;35568;48.104;11.782;2024-02-04T10:23:42;96271.56;;;9.09;45.62
48156;BME280;35568;48.104;11.782;2024-02-04T10:26:09;96266.52;;;9.25;45.42
48156;BME280;35568;48.104;11.782;2024-02-04T10:28:37;96261.45;;;9.50;45.12
48156;BME280;35568;48.104;11.782;2024-02-04T10:31:05;96259.99;;;9.15;44.97
48156;BME280;35568;48.104;11.782;2024-02-04T10:33:31;96259.26;;;9.36;45.82
48156;BME280;35568;48.104;11.782;2024-02-04T10:35:58;96253.88;;;9.39;45.56
48156;BME280;35568;48.104;11.782;2024-02-04T10:38:26;96249.27;;;9.42;44.96
48156;BME280;35568;48.104;11.782;2024-02-04T10:40:54;96247.87;;;9.54;44.88
48156;BME280;35568;48.104;11.782;2024-02-04T10:43:21;96249.88;;;9.72;45.07
48156;BME280;35568;48.104;11.782;2024-02-04T10:45:52;96252.81;;;9.98;44.57
48156;BME280;35568;48.104;11.782;2024-02-04T10:48:25;96258.56;;;9.92;44.61
48156;BME280;35568;48.104;11.782;2024-02-04T10:50:56;96257.56;;;9.99;44.72
48156;BME280;35568;48.104;11.782;2024-02-04T10:53:25;96254.20;;;10.41;43.86
48156;BME280;35568;48.104;11.782;2024-02-04T10:55:55;96249.01;;;10.19;43.73
48156;BME280;35568;48.104;11.782;2024-02-04T10:58:25;96243.84;;;10.07;43.81
48156;BME280;35568;48.104;11.782;2024-02-04T11:00:53;96241.95;;;10.07;43.78
48156;BME280;35568;48.104;11.782;2024-02-04T11:03:21;96245.45;;;10.05;44.46
48156;BME280;35568;48.104;11.782;2024-02-04T11:05:50;96231.17;;;10.61;43.41
48156;BME280;35568;48.104;11.782;2024-02-04T11:08:18;96232.23;;;10.88;43.13
48156;BME280;35568;48.104;11.782;2024-02-04T11:10:45;96228.16;;;10.41;43.48
48156;BME280;35568;48.104;11.782;2024-02-04T11:13:12;96225.73;;;10.46;43.46
48156;BME280;35568;48.104;11.782;2024-02-04T11:15:40;96215.01;;;10.31;43.97
48156;BME280;35568;48.104;11.782;2024-02-04T11:18:58;96210.24;;;10.85;44.06
48156;BME280;35568;48.104;11.782;2024-02-04T11:21:45;96209.05;;;10.47;43.81
48156;BME280;35568;48.104;11.782;2024-02-04T11:24:28;96194.87;;;10.26;43.68
48156;BME280;35568;48.104;11.782;2024-02-04T11:27:02;96186.04;;;10.73;43.49
48156;BME280;35568;48.104;11.782;2024-02-04T11:29:29;96175.52;;;10.64;43.30
48156;BME280;35568;48.104;11.782;2024-02-04T11:31:56;96172.18;;;10.91;43.17
48156;BME280;35568;48.104;11.782;2024-02-04T11:34:24;96166.40;;;10.82;42.96
48156;BME280;35568;48.104;11.782;2024-02-04T11:36:51;96167.35;;;10.67;42.82
48156;BME280;35568;48.104;11.782;2024-02-04T11:39:19;96160.48;;;10.74;43.03
48156;BME280;35568;48.104;11.782;2024-02-04T11:41:46;96155.10;;;11.02;43.48
48156;BME280;35568;48.104;11.782;2024-02-04T11:44:20;96157.79;;;10.94;42.95
48156;BME280;35568;48.104;11.782;2024-02-04T11:46:47;96158.74;;;12.06;41.49
48156;BME280;35568;48.104;11.782;2024-02-04T11:49:15;96157.37;;;12.68;40.94
48156;BME280;35568;48.104;11.782;2024-02-04T11:51:46;96157.18;;;12.76;40.37
48156;BME280;35568;48.104;11.782;2024-02-04T11:54:12;96160.59;;;12.25;39.96
48156;BME280;35568;48.104;11.782;2024-02-04T11:56:40;96160.35;;;12.32;40.26
48156;BME280;35568;48.104;11.782;2024-02-04T11:59:07;96162.14;;;12.84;40.16
48156;BME280;35568;48.104;11.782;2024-02-04T12:01:35;96165.73;;;12.30;40.81
48156;BME280;35568;48.104;11.782;2024-02-04T12:04:09;96168.30;;;11.74;41.26
48156;BME280;35568;48.104;11.782;2024-02-04T12:06:36;96172.40;;;12.11;41.40
48156;BME280;35568;48.104;11.782;2024-02-04T12:09:04;96165.23;;;12.07;41.48
48156;BME280;35568;48.104;11.782;2024-02-04T12:11:31;96164.35;;;11.59;41.89
48156;BME280;35568;48.104;11.782;2024-02-04T12:14:00;96146.59;;;11.27;42.01
48156;BME280;35568;48.104;11.782;2024-02-04T12:16:27;96149.00;;;11.81;42.05
48156;BME280;35568;48.104;11.782;2024-02-04T12:18:54;96135.55;;;11.05;41.74
48156;BME280;35568;48.104;11.782;2024-02-04T12:21:21;96139.50;;;11.06;42.96
48156;BME280;35568;48.104;11.782;2024-02-04T12:23:48;96135.37;;;11.39;42.41
48156;BME280;35568;48.104;11.782;2024-02-04T12:26:15;96132.38;;;11.62;42.03
48156;BME280;35568;48.104;11.782;2024-02-04T12:28:42;96131.75;;;11.57;41.92
48156;BME280;35568;48.104;11.782;2024-02-04T12:31:16;96124.90;;;12.01;41.63
48156;BME280;35568;48.104;11.782;2024-02-04T12:33:52;96134.79;;;11.99;41.29
48156;BME280;35568;48.104;11.782;2024-02-04T12:36:20;96119.59;;;12.35;40.86
48156;BME280;35568;48.104;11.782;2024-02-04T12:38:52;96117.09;;;12.06;41.31
48156;BME280;35568;48.104;11.782;2024-02-04T12:41:19;96125.03;;;11.44;41.43
48156;BME280;35568;48.104;11.782;2024-02-04T12:43:50;96120.29;;;11.43;41.96
48156;BME280;35568;48.104;11.782;2024-02-04T12:46:17;96113.16;;;11.65;41.89
48156;BME280;35568;48.104;11.782;2024-02-04T12:48:44;96108.42;;;11.31;41.91
48156;BME280;35568;48.104;11.782;2024-02-04T12:51:12;96100.68;;;11.32;42.07
48156;BME280;35568;48.104;11.782;2024-02-04T12:53:49;96102.65;;;11.55;41.67
48156;BME280;35568;48.104;11.782;2024-02-04T12:56:16;96096.13;;;11.40;41.84
48156;BME280;35568;48.104;11.782;2024-02-04T12:58:43;96096.43;;;11.59;41.43
48156;BME280;35568;48.104;11.782;2024-02-04T13:01:10;96089.64;;;11.45;41.52